PWSweather.com
Personal Weather Stations
Station Observations
N3SME
Betz Creek, Wilmington Island, Savannah, GA 31410

Betz Creek, Wilmington IslandSavannah, GA 31410

Lat: 32.023021, Lon: -80.959452

Elevation: 15

Station Type: Ambient

High Low Average
Temperature 63.9°F17.7°C 63.4°F17.4°C 63.6°F17.6°C
Dew Point 57.4°F14.1°C 56.8°F13.8°C 57.0°F13.9°C
Winds Calm Calm Calm Calm Calm Calm
Wind Gusts 8.7 mph14.0 kmh 3.6 mph5.8 kmh 5.0 mph8.0 kmh
Humidity 81% 78% 79%
Pressure 29.87 in1011.5 mb 29.86 in1011.2 mb -
Precipitation 0.00 in0.0 mm - -
Hour Temp Dew Point Humidity Winds Wind Gusts Pressure Precip Precip Rate Daily Precip Total
12:00 AM 64.5°F18.1°C 56.2°F13.4°C 75% Calm Calm 3.6 mph5.8 kmh 29.86 in1011.2 mb 0.00 in0.0 mm 0.00 in/hr0.0 mm/hr 0.00 in0.0 mm
12:15 AM 63.9°F17.7°C 56.5°F13.6°C 77% Calm Calm 3.6 mph5.8 kmh 29.85 in1010.8 mb 0.00 in0.0 mm 0.00 in/hr0.0 mm/hr 0.00 in0.0 mm
12:30 AM 63.8°F17.7°C 56.7°F13.7°C 78% Calm Calm 3.6 mph5.8 kmh 29.86 in1011.2 mb 0.00 in0.0 mm 0.00 in/hr0.0 mm/hr 0.00 in0.0 mm
12:45 AM 63.8°F17.7°C 56.7°F13.7°C 78% Calm Calm 5.1 mph8.2 kmh 29.86 in1011.2 mb 0.00 in0.0 mm 0.00 in/hr0.0 mm/hr 0.00 in0.0 mm
01:00 AM 63.6°F17.6°C 56.8°F13.8°C 79% Calm Calm 3.6 mph5.8 kmh 29.86 in1011.2 mb 0.00 in0.0 mm 0.00 in/hr0.0 mm/hr 0.00 in0.0 mm
01:15 AM 63.9°F17.7°C 56.8°F13.8°C 78% Calm Calm 3.6 mph5.8 kmh 29.86 in1011.2 mb 0.00 in0.0 mm 0.00 in/hr0.0 mm/hr 0.00 in0.0 mm
01:30 AM 63.4°F17.4°C 57.4°F14.1°C 81% Calm Calm 8.7 mph14.0 kmh 29.87 in1011.5 mb 0.00 in0.0 mm 0.00 in/hr0.0 mm/hr 0.00 in0.0 mm
01:45 AM 62.7°F17.1°C 56.7°F13.7°C 81% Calm Calm 1.8 mph2.9 kmh 29.86 in1011.2 mb 0.00 in0.0 mm 0.00 in/hr0.0 mm/hr 0.00 in0.0 mm
02:00 AM 62.1°F16.7°C 56.5°F13.6°C 82% Calm Calm -- 29.86 in1011.2 mb 0.00 in0.0 mm 0.00 in/hr0.0 mm/hr 0.00 in0.0 mm
02:15 AM 61.8°F16.6°C 56.2°F13.4°C 82% Calm Calm 1.8 mph2.9 kmh 29.86 in1011.2 mb 0.00 in0.0 mm 0.00 in/hr0.0 mm/hr 0.00 in0.0 mm
02:30 AM 61.4°F16.3°C 56.1°F13.4°C 83% Calm Calm 3.6 mph5.8 kmh 29.85 in1010.8 mb 0.00 in0.0 mm 0.00 in/hr0.0 mm/hr 0.00 in0.0 mm
02:45 AM 60.9°F16.1°C 55.6°F13.1°C 83% Calm Calm 3.6 mph5.8 kmh 29.85 in1010.8 mb 0.00 in0.0 mm 0.00 in/hr0.0 mm/hr 0.00 in0.0 mm
03:00 AM 60.3°F15.7°C 56.1°F13.4°C 86% Calm Calm 3.6 mph5.8 kmh 29.85 in1010.8 mb 0.00 in0.0 mm 0.00 in/hr0.0 mm/hr 0.00 in0.0 mm
03:15 AM 60.3°F15.7°C 56.4°F13.6°C 87% 1.8 mph ENE2.9 kmh ENE 14.1 mph22.7 kmh 29.85 in1010.8 mb 0.00 in0.0 mm 0.00 in/hr0.0 mm/hr 0.00 in0.0 mm
03:30 AM 60.7°F15.9°C 56.4°F13.6°C 86% 1.8 mph N2.9 kmh N 3.6 mph5.8 kmh 29.86 in1011.2 mb 0.00 in0.0 mm 0.00 in/hr0.0 mm/hr 0.00 in0.0 mm
03:45 AM 60.5°F15.8°C 55.9°F13.3°C 85% Calm Calm 1.8 mph2.9 kmh 29.86 in1011.2 mb 0.00 in0.0 mm 0.00 in/hr0.0 mm/hr 0.00 in0.0 mm
04:00 AM 60.2°F15.7°C 55.6°F13.1°C 85% 1.8 mph SW2.9 kmh SW 3.6 mph5.8 kmh 29.87 in1011.5 mb 0.00 in0.0 mm 0.00 in/hr0.0 mm/hr 0.00 in0.0 mm
04:15 AM 59.6°F15.3°C 55.4°F13.0°C 86% Calm Calm 5.1 mph8.2 kmh 29.87 in1011.5 mb 0.00 in0.0 mm 0.00 in/hr0.0 mm/hr 0.00 in0.0 mm
04:30 AM 59.4°F15.2°C 55.5°F13.1°C 87% Calm Calm 3.6 mph5.8 kmh 29.86 in1011.2 mb 0.00 in0.0 mm 0.00 in/hr0.0 mm/hr 0.00 in0.0 mm
04:45 AM 59.3°F15.2°C 55.4°F13.0°C 87% Calm Calm 1.8 mph2.9 kmh 29.86 in1011.2 mb 0.00 in0.0 mm 0.00 in/hr0.0 mm/hr 0.00 in0.0 mm
05:00 AM 59.1°F15.1°C 55.2°F12.9°C 87% Calm Calm 3.6 mph5.8 kmh 29.86 in1011.2 mb 0.00 in0.0 mm 0.00 in/hr0.0 mm/hr 0.00 in0.0 mm
05:15 AM 58.9°F14.9°C 55.0°F12.8°C 87% Calm Calm 1.8 mph2.9 kmh 29.86 in1011.2 mb 0.00 in0.0 mm 0.00 in/hr0.0 mm/hr 0.00 in0.0 mm
05:30 AM 58.7°F14.8°C 55.1°F12.8°C 88% Calm Calm 1.8 mph2.9 kmh 29.87 in1011.5 mb 0.00 in0.0 mm 0.00 in/hr0.0 mm/hr 0.00 in0.0 mm
05:45 AM 58.5°F14.7°C 55.3°F12.9°C 89% Calm Calm 3.6 mph5.8 kmh 29.88 in1011.9 mb 0.00 in0.0 mm 0.00 in/hr0.0 mm/hr 0.00 in0.0 mm
06:00 AM 58.4°F14.7°C 55.1°F12.8°C 89% Calm Calm 1.8 mph2.9 kmh 29.88 in1011.9 mb 0.00 in0.0 mm 0.00 in/hr0.0 mm/hr 0.00 in0.0 mm
06:15 AM 58.4°F14.7°C 55.1°F12.8°C 89% Calm Calm 1.8 mph2.9 kmh 29.89 in1012.2 mb 0.00 in0.0 mm 0.00 in/hr0.0 mm/hr 0.00 in0.0 mm
06:30 AM 58.2°F14.6°C 54.9°F12.7°C 89% Calm Calm 1.8 mph2.9 kmh 29.90 in1012.5 mb 0.00 in0.0 mm 0.00 in/hr0.0 mm/hr 0.00 in0.0 mm
06:45 AM 58.0°F14.4°C 54.8°F12.7°C 89% Calm Calm 1.8 mph2.9 kmh 29.90 in1012.5 mb 0.00 in0.0 mm 0.00 in/hr0.0 mm/hr 0.00 in0.0 mm
07:00 AM 58.0°F14.4°C 54.8°F12.7°C 89% Calm Calm 1.8 mph2.9 kmh 29.91 in1012.9 mb 0.00 in0.0 mm 0.00 in/hr0.0 mm/hr 0.00 in0.0 mm
07:15 AM 58.4°F14.7°C 55.4°F13.0°C 90% Calm Calm 1.8 mph2.9 kmh 29.92 in1013.2 mb 0.00 in0.0 mm 0.00 in/hr0.0 mm/hr 0.00 in0.0 mm
07:30 AM 58.7°F14.8°C 55.8°F13.2°C 90% Calm Calm -- 29.92 in1013.2 mb 0.00 in0.0 mm 0.00 in/hr0.0 mm/hr 0.00 in0.0 mm
07:45 AM 59.4°F15.2°C 56.8°F13.8°C 91% Calm Calm 3.6 mph5.8 kmh 29.93 in1013.5 mb 0.00 in0.0 mm 0.00 in/hr0.0 mm/hr 0.00 in0.0 mm
08:00 AM 61.2°F16.2°C 58.6°F14.8°C 91% Calm Calm 5.1 mph8.2 kmh 29.93 in1013.5 mb 0.00 in0.0 mm 0.00 in/hr0.0 mm/hr 0.00 in0.0 mm
08:15 AM 63.6°F17.6°C 60.9°F16.1°C 91% 3.6 mph ENE5.8 kmh ENE 8.7 mph14.0 kmh 29.94 in1013.9 mb 0.00 in0.0 mm 0.00 in/hr0.0 mm/hr 0.00 in0.0 mm
08:30 AM 66.3°F19.1°C 62.9°F17.2°C 89% 3.6 mph E5.8 kmh E 14.1 mph22.7 kmh 29.95 in1014.2 mb 0.00 in0.0 mm 0.00 in/hr0.0 mm/hr 0.00 in0.0 mm
08:45 AM 67.2°F19.6°C 62.5°F16.9°C 85% 3.6 mph E5.8 kmh E 14.1 mph22.7 kmh 29.95 in1014.2 mb 0.00 in0.0 mm 0.00 in/hr0.0 mm/hr 0.00 in0.0 mm
09:00 AM 69.0°F20.6°C 63.2°F17.3°C 82% 8.7 mph E14.0 kmh E 17.4 mph28.0 kmh 29.96 in1014.6 mb 0.00 in0.0 mm 0.00 in/hr0.0 mm/hr 0.00 in0.0 mm
09:15 AM 70.2°F21.2°C 63.7°F17.6°C 80% 6.9 mph NE11.1 kmh NE 19.2 mph30.9 kmh 29.96 in1014.6 mb 0.00 in0.0 mm 0.00 in/hr0.0 mm/hr 0.00 in0.0 mm
09:30 AM 70.8°F21.6°C 64.2°F17.9°C 80% 8.7 mph E14.0 kmh E 24.6 mph39.6 kmh 29.96 in1014.6 mb 0.00 in0.0 mm 0.00 in/hr0.0 mm/hr 0.00 in0.0 mm
09:45 AM 72.0°F22.2°C 64.7°F18.2°C 78% 5.1 mph E8.2 kmh E 19.2 mph30.9 kmh 29.96 in1014.6 mb 0.00 in0.0 mm 0.00 in/hr0.0 mm/hr 0.00 in0.0 mm
10:00 AM 72.4°F22.4°C 64.6°F18.1°C 77% 8.7 mph E14.0 kmh E 26.2 mph42.2 kmh 29.97 in1014.9 mb 0.00 in0.0 mm 0.00 in/hr0.0 mm/hr 0.00 in0.0 mm
10:15 AM 73.7°F23.2°C 65.5°F18.6°C 76% 6.9 mph E11.1 kmh E 22.8 mph36.7 kmh 29.97 in1014.9 mb 0.00 in0.0 mm 0.00 in/hr0.0 mm/hr 0.00 in0.0 mm
10:30 AM 74.0°F23.3°C 65.8°F18.8°C 76% 6.9 mph E11.1 kmh E 22.8 mph36.7 kmh 29.98 in1015.2 mb 0.00 in0.0 mm 0.00 in/hr0.0 mm/hr 0.00 in0.0 mm
10:45 AM 75.1°F23.9°C 66.0°F18.9°C 74% 3.6 mph E5.8 kmh E 24.6 mph39.6 kmh 29.98 in1015.2 mb 0.00 in0.0 mm 0.00 in/hr0.0 mm/hr 0.00 in0.0 mm
11:00 AM 75.5°F24.2°C 65.6°F18.7°C 72% 6.9 mph ENE11.1 kmh ENE 26.2 mph42.2 kmh 29.98 in1015.2 mb 0.00 in0.0 mm 0.00 in/hr0.0 mm/hr 0.00 in0.0 mm
11:15 AM 76.0°F24.4°C 66.1°F18.9°C 72% 6.9 mph E11.1 kmh E 31.5 mph50.7 kmh 29.98 in1015.2 mb 0.00 in0.0 mm 0.00 in/hr0.0 mm/hr 0.00 in0.0 mm
11:30 AM 75.6°F24.2°C 65.3°F18.5°C 71% 12.3 mph E19.8 kmh E 24.6 mph39.6 kmh 29.98 in1015.2 mb 0.00 in0.0 mm 0.00 in/hr0.0 mm/hr 0.00 in0.0 mm
11:45 AM 76.0°F24.4°C 63.5°F17.5°C 66% 8.7 mph E14.0 kmh E 26.2 mph42.2 kmh 29.98 in1015.2 mb 0.00 in0.0 mm 0.00 in/hr0.0 mm/hr 0.00 in0.0 mm
12:00 PM 76.7°F24.8°C 62.7°F17.1°C 63% 10.5 mph E16.9 kmh E 26.2 mph42.2 kmh 29.98 in1015.2 mb 0.00 in0.0 mm 0.00 in/hr0.0 mm/hr 0.00 in0.0 mm
12:15 PM 76.9°F24.9°C 61.9°F16.6°C 61% 15.7 mph ENE25.3 kmh ENE 33.3 mph53.6 kmh 29.98 in1015.2 mb 0.00 in0.0 mm 0.00 in/hr0.0 mm/hr 0.00 in0.0 mm
12:30 PM 76.5°F24.7°C 61.1°F16.2°C 60% 14.1 mph ESE22.7 kmh ESE 28.0 mph45.1 kmh 29.98 in1015.2 mb 0.00 in0.0 mm 0.00 in/hr0.0 mm/hr 0.00 in0.0 mm
12:45 PM 76.7°F24.8°C 62.2°F16.8°C 62% 6.9 mph E11.1 kmh E 24.6 mph39.6 kmh 29.98 in1015.2 mb 0.00 in0.0 mm 0.00 in/hr0.0 mm/hr 0.00 in0.0 mm
01:00 PM 76.2°F24.6°C 61.7°F16.5°C 62% 10.5 mph E16.9 kmh E 29.8 mph48.0 kmh 29.98 in1015.2 mb 0.00 in0.0 mm 0.00 in/hr0.0 mm/hr 0.00 in0.0 mm
01:15 PM 76.2°F24.6°C 62.2°F16.8°C 63% 10.5 mph E16.9 kmh E 33.3 mph53.6 kmh 29.97 in1014.9 mb 0.00 in0.0 mm 0.00 in/hr0.0 mm/hr 0.00 in0.0 mm
01:30 PM 75.8°F24.3°C 61.9°F16.6°C 63% 12.3 mph NE19.8 kmh NE 35.1 mph56.5 kmh 29.97 in1014.9 mb 0.00 in0.0 mm 0.00 in/hr0.0 mm/hr 0.00 in0.0 mm
01:45 PM 75.5°F24.2°C 61.5°F16.4°C 63% 8.7 mph E14.0 kmh E 35.1 mph56.5 kmh 29.97 in1014.9 mb 0.00 in0.0 mm 0.00 in/hr0.0 mm/hr 0.00 in0.0 mm
02:00 PM 74.9°F23.8°C 61.0°F16.1°C 63% 8.7 mph E14.0 kmh E 35.1 mph56.5 kmh 29.97 in1014.9 mb 0.00 in0.0 mm 0.00 in/hr0.0 mm/hr 0.00 in0.0 mm
02:15 PM 74.6°F23.7°C 60.7°F15.9°C 63% 6.9 mph E11.1 kmh E 29.8 mph48.0 kmh 29.96 in1014.6 mb 0.00 in0.0 mm 0.00 in/hr0.0 mm/hr 0.00 in0.0 mm
02:30 PM 74.7°F23.7°C 59.9°F15.5°C 61% 8.7 mph ESE14.0 kmh ESE 29.8 mph48.0 kmh 29.96 in1014.6 mb 0.00 in0.0 mm 0.00 in/hr0.0 mm/hr 0.00 in0.0 mm
02:45 PM 75.1°F23.9°C 61.2°F16.2°C 63% 8.7 mph E14.0 kmh E 26.2 mph42.2 kmh 29.96 in1014.6 mb 0.00 in0.0 mm 0.00 in/hr0.0 mm/hr 0.00 in0.0 mm
03:00 PM 74.2°F23.4°C 60.8°F16.0°C 64% 10.5 mph ESE16.9 kmh ESE 26.2 mph42.2 kmh 29.95 in1014.2 mb 0.00 in0.0 mm 0.00 in/hr0.0 mm/hr 0.00 in0.0 mm
03:15 PM 74.2°F23.4°C 61.3°F16.3°C 65% 14.1 mph E22.7 kmh E 29.8 mph48.0 kmh 29.95 in1014.2 mb 0.00 in0.0 mm 0.00 in/hr0.0 mm/hr 0.00 in0.0 mm
03:30 PM 73.5°F23.1°C 62.0°F16.7°C 68% 6.9 mph ESE11.1 kmh ESE 26.2 mph42.2 kmh 29.94 in1013.9 mb 0.00 in0.0 mm 0.00 in/hr0.0 mm/hr 0.00 in0.0 mm
03:45 PM 73.7°F23.2°C 62.1°F16.7°C 68% 6.9 mph E11.1 kmh E 29.8 mph48.0 kmh 29.93 in1013.5 mb 0.00 in0.0 mm 0.00 in/hr0.0 mm/hr 0.00 in0.0 mm
04:00 PM 73.3°F22.9°C 62.2°F16.8°C 69% 10.5 mph E16.9 kmh E 26.2 mph42.2 kmh 29.93 in1013.5 mb 0.00 in0.0 mm 0.00 in/hr0.0 mm/hr 0.00 in0.0 mm
04:15 PM 72.4°F22.4°C 61.8°F16.6°C 70% 10.5 mph E16.9 kmh E 24.6 mph39.6 kmh 29.93 in1013.5 mb 0.00 in0.0 mm 0.00 in/hr0.0 mm/hr 0.00 in0.0 mm
04:30 PM 72.6°F22.6°C 62.0°F16.7°C 70% 8.7 mph E14.0 kmh E 24.6 mph39.6 kmh 29.93 in1013.5 mb 0.00 in0.0 mm 0.00 in/hr0.0 mm/hr 0.00 in0.0 mm
04:45 PM 72.0°F22.2°C 62.3°F16.8°C 72% 3.6 mph E5.8 kmh E 24.6 mph39.6 kmh 29.92 in1013.2 mb 0.00 in0.0 mm 0.00 in/hr0.0 mm/hr 0.00 in0.0 mm
05:00 PM 71.9°F22.2°C 62.1°F16.7°C 72% 6.9 mph E11.1 kmh E 21.0 mph33.8 kmh 29.93 in1013.5 mb 0.00 in0.0 mm 0.00 in/hr0.0 mm/hr 0.00 in0.0 mm
05:15 PM 70.6°F21.4°C 62.1°F16.7°C 75% 5.1 mph E8.2 kmh E 24.6 mph39.6 kmh 29.93 in1013.5 mb 0.00 in0.0 mm 0.00 in/hr0.0 mm/hr 0.00 in0.0 mm
05:30 PM 70.8°F21.6°C 62.3°F16.8°C 75% 3.6 mph ENE5.8 kmh ENE 26.2 mph42.2 kmh 29.93 in1013.5 mb 0.00 in0.0 mm 0.00 in/hr0.0 mm/hr 0.00 in0.0 mm
05:45 PM 69.7°F20.9°C 62.0°F16.7°C 77% 8.7 mph ENE14.0 kmh ENE 24.6 mph39.6 kmh 29.93 in1013.5 mb 0.00 in0.0 mm 0.00 in/hr0.0 mm/hr 0.00 in0.0 mm
06:00 PM 69.7°F20.9°C 62.4°F16.9°C 78% 8.7 mph ENE14.0 kmh ENE 24.6 mph39.6 kmh 29.93 in1013.5 mb 0.00 in0.0 mm 0.00 in/hr0.0 mm/hr 0.00 in0.0 mm
06:15 PM 69.5°F20.8°C 62.2°F16.8°C 78% 5.1 mph E8.2 kmh E 24.6 mph39.6 kmh 29.93 in1013.5 mb 0.00 in0.0 mm 0.00 in/hr0.0 mm/hr 0.00 in0.0 mm
06:30 PM 68.3°F20.2°C 62.1°F16.7°C 81% 10.5 mph E16.9 kmh E 21.0 mph33.8 kmh 29.93 in1013.5 mb 0.00 in0.0 mm 0.00 in/hr0.0 mm/hr 0.00 in0.0 mm
06:45 PM 68.3°F20.2°C 62.5°F16.9°C 82% 5.1 mph E8.2 kmh E 21.0 mph33.8 kmh 29.92 in1013.2 mb 0.00 in0.0 mm 0.00 in/hr0.0 mm/hr 0.00 in0.0 mm
07:00 PM 68.1°F20.1°C 62.3°F16.8°C 82% 6.9 mph E11.1 kmh E 19.2 mph30.9 kmh 29.92 in1013.2 mb 0.00 in0.0 mm 0.00 in/hr0.0 mm/hr 0.00 in0.0 mm
07:15 PM 68.1°F20.1°C 62.6°F17.0°C 83% 3.6 mph E5.8 kmh E 17.4 mph28.0 kmh 29.92 in1013.2 mb 0.00 in0.0 mm 0.00 in/hr0.0 mm/hr 0.00 in0.0 mm
07:30 PM 67.2°F19.6°C 62.1°F16.7°C 84% 3.6 mph E5.8 kmh E 21.0 mph33.8 kmh 29.91 in1012.9 mb 0.00 in0.0 mm 0.00 in/hr0.0 mm/hr 0.00 in0.0 mm
07:45 PM 66.6°F19.2°C 61.9°F16.6°C 85% 3.6 mph ESE5.8 kmh ESE 10.5 mph16.9 kmh 29.92 in1013.2 mb 0.00 in0.0 mm 0.00 in/hr0.0 mm/hr 0.00 in0.0 mm
08:00 PM 66.1°F18.9°C 61.7°F16.5°C 86% 1.8 mph E2.9 kmh E 15.7 mph25.3 kmh 29.92 in1013.2 mb 0.00 in0.0 mm 0.00 in/hr0.0 mm/hr 0.00 in0.0 mm
08:15 PM 65.9°F18.8°C 61.9°F16.6°C 87% 1.8 mph E2.9 kmh E 12.3 mph19.8 kmh 29.92 in1013.2 mb 0.00 in0.0 mm 0.00 in/hr0.0 mm/hr 0.00 in0.0 mm
08:30 PM 65.7°F18.7°C 62.0°F16.7°C 88% 3.6 mph E5.8 kmh E 12.3 mph19.8 kmh 29.92 in1013.2 mb 0.00 in0.0 mm 0.00 in/hr0.0 mm/hr 0.00 in0.0 mm
08:45 PM 65.7°F18.7°C 62.0°F16.7°C 88% 1.8 mph E2.9 kmh E 6.9 mph11.1 kmh 29.92 in1013.2 mb 0.00 in0.0 mm 0.00 in/hr0.0 mm/hr 0.00 in0.0 mm
09:00 PM 65.6°F18.7°C 62.2°F16.8°C 89% 1.8 mph ENE2.9 kmh ENE 8.7 mph14.0 kmh 29.92 in1013.2 mb 0.00 in0.0 mm 0.00 in/hr0.0 mm/hr 0.00 in0.0 mm
09:15 PM 65.4°F18.6°C 62.3°F16.8°C 90% 1.8 mph ENE2.9 kmh ENE 8.7 mph14.0 kmh 29.92 in1013.2 mb 0.00 in0.0 mm 0.00 in/hr0.0 mm/hr 0.00 in0.0 mm
09:30 PM 65.4°F18.6°C 62.3°F16.8°C 90% 1.8 mph NE2.9 kmh NE 6.9 mph11.1 kmh 29.91 in1012.9 mb 0.00 in0.0 mm 0.00 in/hr0.0 mm/hr 0.00 in0.0 mm
09:45 PM 65.2°F18.4°C 62.2°F16.8°C 90% 1.8 mph NE2.9 kmh NE 5.1 mph8.2 kmh 29.91 in1012.9 mb 0.00 in0.0 mm 0.00 in/hr0.0 mm/hr 0.00 in0.0 mm
10:00 PM 65.2°F18.4°C 62.5°F16.9°C 91% 1.8 mph E2.9 kmh E 8.7 mph14.0 kmh 29.92 in1013.2 mb 0.00 in0.0 mm 0.00 in/hr0.0 mm/hr 0.00 in0.0 mm
10:15 PM 65.2°F18.4°C 62.5°F16.9°C 91% Calm Calm 5.1 mph8.2 kmh 29.91 in1012.9 mb 0.00 in0.0 mm 0.00 in/hr0.0 mm/hr 0.00 in0.0 mm
10:30 PM 65.2°F18.4°C 62.8°F17.1°C 92% Calm Calm 5.1 mph8.2 kmh 29.91 in1012.9 mb 0.00 in0.0 mm 0.00 in/hr0.0 mm/hr 0.00 in0.0 mm
10:45 PM 65.0°F18.3°C 62.3°F16.8°C 91% Calm Calm 5.1 mph8.2 kmh 29.91 in1012.9 mb 0.00 in0.0 mm 0.00 in/hr0.0 mm/hr 0.00 in0.0 mm
11:00 PM 65.0°F18.3°C 62.3°F16.8°C 91% Calm Calm 5.1 mph8.2 kmh 29.92 in1013.2 mb 0.00 in0.0 mm 0.00 in/hr0.0 mm/hr 0.00 in0.0 mm
11:15 PM 65.0°F18.3°C 62.3°F16.8°C 91% Calm Calm 8.7 mph14.0 kmh 29.91 in1012.9 mb 0.00 in0.0 mm 0.00 in/hr0.0 mm/hr 0.00 in0.0 mm
11:30 PM 65.0°F18.3°C 62.3°F16.8°C 91% Calm Calm 3.6 mph5.8 kmh 29.91 in1012.9 mb 0.00 in0.0 mm 0.00 in/hr0.0 mm/hr 0.00 in0.0 mm
11:45 PM 64.8°F18.2°C 62.4°F16.9°C 92% Calm Calm 3.6 mph5.8 kmh 29.91 in1012.9 mb 0.00 in0.0 mm 0.00 in/hr0.0 mm/hr 0.00 in0.0 mm